Time;durP1;ratioP1;P1;durP2;ratioP2;P2;SDS_P1;SDS_P2;PMS_P1;PMS_P2;Temp;Humidity;BMP_temperature;BMP_pressure;BME280_temperature;BME280_humidity;BME280_pressure;Samples;Min_cycle;Max_cycle;Signal;HPM_P1;HPM_P2
2022/03/01 00:02:15;;;;;;;14.23;6.70;;;-0.50;99.90;;;;;;5195646;28;20485;-49
2022/03/01 00:04:46;;;;;;;15.47;7.20;;;-0.50;99.90;;;;;;5193986;28;20640;-48
2022/03/01 00:07:16;;;;;;;15.20;7.63;;;-0.50;99.90;;;;;;5194141;28;20192;-48
2022/03/01 00:09:47;;;;;;;14.50;6.47;;;-0.50;99.90;;;;;;5202603;28;20684;-49
2022/03/01 00:12:17;;;;;;;17.10;6.40;;;-0.60;99.90;;;;;;5197267;28;20210;-48
2022/03/01 00:14:48;;;;;;;13.37;7.10;;;-0.60;99.90;;;;;;5193112;28;20192;-47
2022/03/01 00:17:18;;;;;;;8.73;6.70;;;-0.50;99.90;;;;;;5203884;28;20295;-47
2022/03/01 00:19:49;;;;;;;15.13;7.20;;;-0.60;99.90;;;;;;5203572;28;20231;-49
2022/03/01 00:22:20;;;;;;;12.30;6.60;;;-0.60;99.90;;;;;;5203601;28;20203;-47
2022/03/01 00:24:50;;;;;;;12.03;5.97;;;-0.60;99.90;;;;;;5196595;28;20276;-46
2022/03/01 00:27:21;;;;;;;12.23;5.80;;;-0.60;99.90;;;;;;5202987;28;20254;-47
2022/03/01 00:29:51;;;;;;;14.37;7.20;;;-0.60;99.90;;;;;;5202709;28;20668;-47
2022/03/01 00:32:22;;;;;;;12.63;7.20;;;-0.60;99.90;;;;;;5197058;28;20597;-47
2022/03/01 00:34:52;;;;;;;9.40;6.77;;;-0.60;99.90;;;;;;5196915;28;20199;-49
2022/03/01 00:37:23;;;;;;;10.53;6.67;;;-0.60;99.90;;;;;;5200685;28;20222;-48
2022/03/01 00:39:53;;;;;;;10.27;6.47;;;-0.60;99.90;;;;;;5200892;28;20668;-49
2022/03/01 00:42:24;;;;;;;12.77;6.53;;;-0.60;99.90;;;;;;5195173;28;20188;-47
2022/03/01 00:44:54;;;;;;;7.57;6.10;;;-0.70;99.90;;;;;;5199068;28;20183;-49
2022/03/01 00:47:25;;;;;;;9.33;5.97;;;-0.70;99.90;;;;;;5198433;28;20179;-47
2022/03/01 00:49:57;;;;;;;15.00;7.13;;;-0.70;99.90;;;;;;5193093;28;20249;-47
2022/03/01 00:52:28;;;;;;;14.33;6.13;;;-0.70;99.90;;;;;;5193493;28;20701;-48
2022/03/01 00:54:59;;;;;;;13.63;7.63;;;-0.70;99.90;;;;;;5197884;28;20443;-48
2022/03/01 00:57:29;;;;;;;11.03;7.83;;;-0.70;99.90;;;;;;5202971;28;20274;-47
2022/03/01 01:00:00;;;;;;;14.27;7.30;;;-0.70;99.90;;;;;;5200652;28;20230;-48
2022/03/01 01:02:30;;;;;;;23.97;7.63;;;-0.70;99.90;;;;;;5201721;28;20636;-46
2022/03/01 01:05:01;;;;;;;12.53;6.13;;;-0.80;99.90;;;;;;5196854;28;20191;-48
2022/03/01 01:07:32;;;;;;;12.60;7.53;;;-0.80;99.90;;;;;;5190772;28;20641;-48
2022/03/01 01:10:04;;;;;;;11.10;6.83;;;-0.80;99.90;;;;;;5203154;28;20270;-46
2022/03/01 01:12:35;;;;;;;9.90;7.10;;;-0.80;99.90;;;;;;5195841;28;20462;-47
2022/03/01 01:15:07;;;;;;;16.17;7.60;;;-0.90;99.90;;;;;;5202395;28;20450;-46
2022/03/01 01:17:38;;;;;;;13.60;6.93;;;-0.80;99.90;;;;;;5200874;28;20434;-47
2022/03/01 01:20:09;;;;;;;18.77;7.80;;;-0.90;99.90;;;;;;5199880;28;20486;-47
2022/03/01 01:22:40;;;;;;;12.10;7.30;;;-0.90;99.90;;;;;;5194113;28;20240;-47
2022/03/01 01:25:19;;;;;;;19.73;7.40;;;-0.90;99.90;;;;;;5203616;28;20435;-47
2022/03/01 01:27:53;;;;;;;16.10;6.93;;;-0.90;99.90;;;;;;5202106;28;20191;-48
2022/03/01 01:30:35;;;;;;;15.00;7.33;;;-0.90;99.90;;;;;;5191602;28;20526;-48
2022/03/01 01:33:06;;;;;;;12.20;6.17;;;-0.90;99.90;;;;;;5194429;28;20429;-48
2022/03/01 01:35:36;;;;;;;12.23;6.50;;;-0.90;99.90;;;;;;5203716;28;20442;-47
2022/03/01 01:38:07;;;;;;;9.70;6.37;;;-1.00;99.90;;;;;;5202697;28;20660;-47
2022/03/01 01:40:37;;;;;;;9.90;7.20;;;-1.00;99.90;;;;;;5193260;28;20231;-47
2022/03/01 01:43:08;;;;;;;15.73;7.40;;;-1.00;99.90;;;;;;5197087;28;20180;-47
2022/03/01 01:45:39;;;;;;;19.73;7.00;;;-1.10;99.90;;;;;;5202873;28;20250;-47
2022/03/01 01:48:09;;;;;;;21.13;7.30;;;-1.00;99.90;;;;;;5199211;28;20175;-47
2022/03/01 01:50:40;;;;;;;21.00;6.90;;;-1.10;99.90;;;;;;5194079;28;20203;-47
2022/03/01 01:53:11;;;;;;;27.23;10.40;;;-1.10;99.90;;;;;;5197227;28;20180;-48
2022/03/01 01:55:41;;;;;;;13.50;6.37;;;-1.10;99.90;;;;;;5201741;28;20994;-46
2022/03/01 01:58:12;;;;;;;15.53;7.50;;;-1.10;99.90;;;;;;5197482;28;20204;-46
2022/03/01 02:00:42;;;;;;;15.90;8.70;;;-1.20;99.90;;;;;;5192002;28;20212;-48
2022/03/01 02:03:13;;;;;;;13.30;7.53;;;-1.20;99.90;;;;;;5197784;28;20574;-47
2022/03/01 02:05:44;;;;;;;12.30;6.50;;;-1.20;99.90;;;;;;5201674;28;20191;-47
2022/03/01 02:08:14;;;;;;;9.60;6.63;;;-1.20;99.90;;;;;;5199246;28;20179;-47
2022/03/01 02:10:45;;;;;;;9.70;7.60;;;-1.20;99.90;;;;;;5191478;28;20226;-47
2022/03/01 02:13:15;;;;;;;13.03;7.10;;;-1.20;99.90;;;;;;5199779;28;20550;-47
2022/03/01 02:15:46;;;;;;;12.03;6.40;;;-1.20;99.90;;;;;;5200662;28;20545;-48
2022/03/01 02:18:18;;;;;;;18.50;8.60;;;-1.30;99.90;;;;;;5197748;28;20230;-49
2022/03/01 02:20:49;;;;;;;18.20;7.43;;;-1.20;99.90;;;;;;5190379;28;20247;-48
2022/03/01 02:23:20;;;;;;;12.67;7.33;;;-1.20;99.90;;;;;;5193326;28;20435;-47
2022/03/01 02:25:50;;;;;;;12.27;6.80;;;-1.20;99.90;;;;;;5208509;28;20500;-49
2022/03/01 02:28:21;;;;;;;12.50;6.90;;;-1.20;99.90;;;;;;5201060;28;20179;-46
2022/03/01 02:30:51;;;;;;;12.97;7.60;;;-1.20;99.90;;;;;;5202534;28;20203;-47
2022/03/01 02:33:22;;;;;;;13.67;7.90;;;-1.30;99.90;;;;;;5196553;28;20196;-47
2022/03/01 02:35:52;;;;;;;16.60;9.10;;;-1.30;99.90;;;;;;5199502;28;20184;-47
2022/03/01 02:38:23;;;;;;;13.10;7.30;;;-1.30;99.90;;;;;;5194780;28;20294;-47
2022/03/01 02:40:53;;;;;;;15.47;7.63;;;-1.20;99.90;;;;;;5197617;28;20212;-47
2022/03/01 02:43:24;;;;;;;14.20;7.20;;;-1.30;99.90;;;;;;5200936;28;20186;-47
2022/03/01 02:45:54;;;;;;;13.63;7.63;;;-1.30;99.90;;;;;;5195509;28;20179;-48
2022/03/01 02:48:25;;;;;;;15.63;7.47;;;-1.40;99.90;;;;;;5204292;28;20260;-48
2022/03/01 02:50:56;;;;;;;7.40;6.30;;;-1.40;99.90;;;;;;5201754;28;20573;-48
2022/03/01 02:53:26;;;;;;;9.23;6.73;;;-1.40;99.90;;;;;;5202971;28;20290;-47
2022/03/01 02:55:57;;;;;;;9.10;6.83;;;-1.30;99.90;;;;;;5206093;28;20271;-48
2022/03/01 02:58:27;;;;;;;14.43;6.83;;;-1.30;99.90;;;;;;5205641;28;20195;-48
2022/03/01 03:00:58;;;;;;;16.70;7.97;;;-1.40;99.90;;;;;;5205910;28;20242;-48
2022/03/01 03:03:28;;;;;;;11.83;6.33;;;-1.40;99.90;;;;;;5203946;28;20663;-48
2022/03/01 03:05:59;;;;;;;21.40;7.80;;;-1.40;99.90;;;;;;5196747;28;20596;-49
2022/03/01 03:08:29;;;;;;;12.57;6.90;;;-1.40;99.90;;;;;;5202067;28;20192;-47
2022/03/01 03:11:00;;;;;;;16.23;7.23;;;-1.50;99.90;;;;;;5198036;28;20214;-45
2022/03/01 03:13:30;;;;;;;12.10;7.40;;;-1.50;99.90;;;;;;5199987;28;20180;-47
2022/03/01 03:16:01;;;;;;;14.87;7.80;;;-1.50;99.90;;;;;;5193809;28;20531;-47
2022/03/01 03:18:31;;;;;;;14.27;7.30;;;-1.50;99.90;;;;;;5204710;28;20182;-46
2022/03/01 03:21:02;;;;;;;11.73;7.00;;;-1.60;99.90;;;;;;5207393;28;20204;-47
2022/03/01 03:23:33;;;;;;;13.30;6.53;;;-1.60;99.90;;;;;;5198580;28;20188;-47
2022/03/01 03:26:03;;;;;;;13.20;6.90;;;-1.60;99.90;;;;;;5192090;28;20242;-48
2022/03/01 03:28:34;;;;;;;15.83;8.20;;;-1.60;99.90;;;;;;5200293;28;20248;-48
2022/03/01 03:31:05;;;;;;;11.67;8.60;;;-1.70;99.90;;;;;;5191618;28;20707;-47
2022/03/01 03:33:35;;;;;;;15.60;7.13;;;-1.60;99.90;;;;;;5196255;28;20529;-47
2022/03/01 03:36:06;;;;;;;10.87;7.60;;;-1.70;99.90;;;;;;5200827;28;20186;-46
2022/03/01 03:38:36;;;;;;;12.07;7.77;;;-1.70;99.90;;;;;;5199696;28;20186;-47
2022/03/01 03:41:07;;;;;;;16.60;8.27;;;-1.60;99.90;;;;;;5195229;28;20270;-48
2022/03/01 03:43:37;;;;;;;26.83;7.40;;;-1.70;99.90;;;;;;5196232;28;20259;-47
2022/03/01 03:46:08;;;;;;;26.30;9.37;;;-1.70;99.90;;;;;;5197197;28;20588;-47
2022/03/01 03:48:38;;;;;;;21.17;9.80;;;-1.70;99.90;;;;;;5208023;28;20191;-49
2022/03/01 03:51:09;;;;;;;18.33;8.10;;;-1.70;99.90;;;;;;5199428;28;20207;-47
2022/03/01 03:53:39;;;;;;;12.67;6.60;;;-1.80;99.90;;;;;;5203874;28;20674;-48
2022/03/01 03:56:10;;;;;;;15.40;8.17;;;-1.80;99.90;;;;;;5196413;28;20186;-48
2022/03/01 03:58:40;;;;;;;12.33;6.13;;;-1.80;99.90;;;;;;5195062;28;20197;-48
2022/03/01 04:01:11;;;;;;;12.60;7.30;;;-1.70;99.90;;;;;;5192610;28;20231;-47
2022/03/01 04:03:42;;;;;;;11.83;7.57;;;-1.70;99.90;;;;;;5199219;28;20199;-46
2022/03/01 04:06:13;;;;;;;16.30;7.70;;;-1.80;99.90;;;;;;5198051;28;20187;-48
2022/03/01 04:08:44;;;;;;;11.00;7.17;;;-1.70;99.90;;;;;;5201121;28;20437;-49
2022/03/01 04:11:14;;;;;;;14.60;7.20;;;-1.70;99.90;;;;;;5200055;28;20219;-48
2022/03/01 04:13:46;;;;;;;15.57;7.57;;;-1.60;99.90;;;;;;5201612;28;20184;-47
2022/03/01 04:16:16;;;;;;;14.50;7.10;;;-1.60;99.90;;;;;;5203512;28;20682;-46
2022/03/01 04:18:47;;;;;;;11.83;6.60;;;-1.60;99.90;;;;;;5197945;28;20540;-46
2022/03/01 04:21:17;;;;;;;17.10;7.60;;;-1.60;99.90;;;;;;5200184;28;20269;-48
2022/03/01 04:23:49;;;;;;;16.43;6.90;;;-1.50;99.90;;;;;;5200245;28;20674;-47
2022/03/01 04:26:19;;;;;;;14.07;7.93;;;-1.60;99.90;;;;;;5204076;28;20267;-48
2022/03/01 04:28:50;;;;;;;9.73;6.77;;;-1.60;99.90;;;;;;5197565;28;20545;-47
2022/03/01 04:31:21;;;;;;;19.30;7.00;;;-1.60;99.90;;;;;;5199831;28;20739;-47
2022/03/01 04:33:54;;;;;;;20.13;7.93;;;-1.70;99.90;;;;;;5195437;28;20184;-48
2022/03/01 04:36:24;;;;;;;16.73;7.03;;;-1.80;99.90;;;;;;5196495;28;20567;-48
2022/03/01 04:38:55;;;;;;;10.80;6.63;;;-1.70;99.90;;;;;;5196013;28;20474;-48
2022/03/01 04:41:25;;;;;;;10.80;6.80;;;-1.70;99.90;;;;;;5198465;28;20213;-47
2022/03/01 04:43:56;;;;;;;12.50;6.70;;;-1.70;99.90;;;;;;5201122;28;20279;-48
2022/03/01 04:46:26;;;;;;;18.37;8.13;;;-1.70;99.90;;;;;;5207168;28;20199;-46
2022/03/01 04:48:57;;;;;;;11.27;6.70;;;-1.70;99.90;;;;;;5202707;28;20247;-47
2022/03/01 04:51:28;;;;;;;17.80;7.57;;;-1.70;99.90;;;;;;5200990;28;20207;-49
2022/03/01 04:53:59;;;;;;;15.03;7.53;;;-1.70;99.90;;;;;;5201991;28;20520;-46
2022/03/01 04:56:30;;;;;;;11.70;7.27;;;-1.80;99.90;;;;;;5205142;28;20337;-47
2022/03/01 04:59:00;;;;;;;13.40;7.40;;;-1.70;99.90;;;;;;5201356;28;20430;-47
2022/03/01 05:01:31;;;;;;;15.30;6.83;;;-1.80;99.90;;;;;;5218556;28;20511;-47
2022/03/01 05:04:02;;;;;;;9.87;6.33;;;-1.70;99.90;;;;;;5201855;28;20261;-46
2022/03/01 05:06:33;;;;;;;12.23;6.63;;;-1.80;99.90;;;;;;5202679;28;20600;-47
2022/03/01 05:09:03;;;;;;;14.50;6.57;;;-1.80;99.90;;;;;;5202688;28;20840;-49
2022/03/01 05:11:35;;;;;;;14.23;7.47;;;-1.80;99.90;;;;;;5253540;23;20310;-46
2022/03/01 05:14:06;;;;;;;8.73;6.20;;;-1.80;99.90;;;;;;5244567;28;20661;-47
2022/03/01 05:16:37;;;;;;;14.03;7.10;;;-1.80;99.90;;;;;;5248387;28;20459;-47
2022/03/01 05:19:09;;;;;;;14.20;7.80;;;-1.80;99.90;;;;;;5247526;28;20865;-46
2022/03/01 05:21:40;;;;;;;12.97;7.07;;;-1.80;99.90;;;;;;5232343;28;20209;-45
2022/03/01 05:24:11;;;;;;;20.60;7.93;;;-1.70;99.90;;;;;;5228910;28;20424;-46
2022/03/01 05:26:41;;;;;;;22.00;8.07;;;-1.80;99.90;;;;;;5228865;28;20940;-48
2022/03/01 05:29:12;;;;;;;11.83;6.87;;;-1.70;99.90;;;;;;5228917;28;20212;-46
2022/03/01 05:31:42;;;;;;;14.77;7.70;;;-1.70;99.90;;;;;;5223483;28;20275;-46
2022/03/01 05:34:13;;;;;;;10.73;7.70;;;-1.80;99.90;;;;;;5228360;28;20185;-48
2022/03/01 05:36:43;;;;;;;17.30;7.77;;;-1.80;99.90;;;;;;5227018;28;20637;-49
2022/03/01 05:39:14;;;;;;;18.23;8.63;;;-1.90;99.90;;;;;;5221343;28;20214;-47
2022/03/01 05:41:44;;;;;;;15.70;7.50;;;-1.90;99.90;;;;;;5224768;28;20201;-46
2022/03/01 05:44:15;;;;;;;11.50;7.03;;;-1.80;99.90;;;;;;5228527;28;20177;-46
2022/03/01 05:46:45;;;;;;;20.17;7.10;;;-1.90;99.90;;;;;;5227295;28;20190;-47
2022/03/01 05:49:16;;;;;;;12.37;7.10;;;-1.90;99.90;;;;;;5226260;28;20178;-47
2022/03/01 05:51:46;;;;;;;16.23;7.60;;;-1.70;99.90;;;;;;5226979;28;20208;-46
2022/03/01 05:54:17;;;;;;;15.17;8.20;;;-1.80;99.90;;;;;;5227486;28;20183;-48
2022/03/01 05:56:47;;;;;;;13.30;8.10;;;-1.70;99.90;;;;;;5226913;28;20209;-46
2022/03/01 05:59:18;;;;;;;13.07;7.60;;;-1.70;99.90;;;;;;5220306;28;20674;-47
2022/03/01 06:01:49;;;;;;;13.03;7.33;;;-1.70;99.90;;;;;;5222050;28;20199;-48
2022/03/01 06:04:19;;;;;;;20.47;8.13;;;-1.80;99.90;;;;;;5224183;28;20176;-46
2022/03/01 06:06:50;;;;;;;16.43;8.43;;;-1.80;99.90;;;;;;5217727;28;20269;-47
2022/03/01 06:09:20;;;;;;;11.10;7.30;;;-1.80;99.90;;;;;;5218995;28;20613;-47
2022/03/01 06:11:51;;;;;;;11.30;7.33;;;-1.80;99.90;;;;;;5226131;28;20226;-47
2022/03/01 06:14:21;;;;;;;13.10;7.90;;;-1.80;99.90;;;;;;5223401;28;20175;-46
2022/03/01 06:16:52;;;;;;;13.60;7.40;;;-1.70;99.90;;;;;;5226077;28;20179;-47
2022/03/01 06:19:22;;;;;;;12.90;7.90;;;-1.70;99.90;;;;;;5225768;28;20206;-49
2022/03/01 06:21:53;;;;;;;13.93;8.00;;;-1.70;99.90;;;;;;5226441;28;20202;-47
2022/03/01 06:24:23;;;;;;;17.57;8.70;;;-1.50;99.90;;;;;;5225680;28;20648;-47
2022/03/01 06:26:54;;;;;;;13.20;7.40;;;-1.40;99.90;;;;;;5227941;28;20183;-47
2022/03/01 06:29:24;;;;;;;19.10;8.43;;;-1.30;99.90;;;;;;5226907;28;20241;-48
2022/03/01 06:31:55;;;;;;;11.00;7.43;;;-1.20;99.90;;;;;;5224702;28;20292;-48
2022/03/01 06:34:25;;;;;;;16.10;8.17;;;-1.00;99.90;;;;;;5226318;28;20194;-49
2022/03/01 06:36:56;;;;;;;15.83;8.17;;;-0.80;99.90;;;;;;5226471;28;20193;-47
2022/03/01 06:39:27;;;;;;;18.17;8.67;;;-0.70;99.90;;;;;;5224340;28;20222;-47
2022/03/01 06:41:57;;;;;;;12.57;7.77;;;-0.50;99.90;;;;;;5226641;28;20190;-50
2022/03/01 06:44:28;;;;;;;12.13;7.70;;;-0.20;99.90;;;;;;5224238;28;20448;-50
2022/03/01 06:46:59;;;;;;;19.17;7.57;;;0.20;99.90;;;;;;5220538;28;20229;-48
2022/03/01 06:49:29;;;;;;;15.47;8.23;;;0.90;95.10;;;;;;5202939;28;20191;-48
2022/03/01 06:52:00;;;;;;;16.10;7.83;;;1.50;86.40;;;;;;5217627;28;20183;-48
2022/03/01 06:54:32;;;;;;;21.97;8.13;;;2.90;73.50;;;;;;5216711;28;20250;-48
2022/03/01 06:57:03;;;;;;;14.10;7.93;;;4.40;59.70;;;;;;5214334;28;20229;-47
2022/03/01 06:59:33;;;;;;;13.07;7.20;;;5.40;52.10;;;;;;5223598;28;20453;-48
2022/03/01 07:02:04;;;;;;;9.47;6.80;;;5.90;49.90;;;;;;5219455;28;20440;-48
2022/03/01 07:04:34;;;;;;;12.80;8.13;;;6.40;47.90;;;;;;5223325;28;20198;-48
2022/03/01 07:07:05;;;;;;;15.87;7.20;;;7.30;45.50;;;;;;5221586;28;20174;-48
2022/03/01 07:09:36;;;;;;;12.73;7.27;;;7.70;43.40;;;;;;5222768;28;20236;-50
2022/03/01 07:12:07;;;;;;;16.50;6.90;;;8.00;42.40;;;;;;5218965;28;20222;-48
2022/03/01 07:14:37;;;;;;;12.07;7.07;;;8.40;41.40;;;;;;5218550;28;20215;-49
2022/03/01 07:17:08;;;;;;;16.53;7.10;;;8.70;40.50;;;;;;5218568;28;20183;-53
2022/03/01 07:19:38;;;;;;;11.87;6.80;;;9.10;39.10;;;;;;5219720;28;20199;-49
2022/03/01 07:22:09;;;;;;;12.70;6.80;;;9.10;39.30;;;;;;5218992;28;20179;-47
2022/03/01 07:24:39;;;;;;;10.13;6.70;;;9.40;37.80;;;;;;5218348;28;20267;-47
2022/03/01 07:27:10;;;;;;;18.03;8.80;;;9.90;37.00;;;;;;5222309;28;20665;-49
2022/03/01 07:29:40;;;;;;;12.27;7.17;;;10.20;35.00;;;;;;5221587;28;20186;-50
2022/03/01 07:32:11;;;;;;;17.07;7.80;;;10.10;34.30;;;;;;5218829;28;20187;-50
2022/03/01 07:34:42;;;;;;;14.80;7.10;;;10.00;34.80;;;;;;5217996;28;20672;-47
2022/03/01 07:37:13;;;;;;;11.27;7.37;;;10.20;34.20;;;;;;5222979;28;20203;-49
2022/03/01 07:39:43;;;;;;;13.80;7.47;;;10.10;33.60;;;;;;5220905;28;20468;-49
2022/03/01 07:42:14;;;;;;;18.57;7.40;;;9.90;35.00;;;;;;5217509;28;20183;-49
2022/03/01 07:44:44;;;;;;;17.13;7.90;;;9.90;34.80;;;;;;5218884;28;20187;-48
2022/03/01 07:47:15;;;;;;;8.53;6.90;;;10.00;34.20;;;;;;5213107;28;20671;-49
2022/03/01 07:49:47;;;;;;;10.40;6.57;;;9.70;34.90;;;;;;5215613;28;20183;-47
2022/03/01 07:52:17;;;;;;;9.67;6.93;;;9.00;35.90;;;;;;5218928;28;20188;-47
2022/03/01 07:54:48;;;;;;;17.23;7.80;;;8.00;37.20;;;;;;5219267;28;20441;-49
2022/03/01 07:57:20;;;;;;;14.43;7.47;;;6.20;39.70;;;;;;5222367;28;20182;-47
2022/03/01 07:59:50;;;;;;;10.80;6.90;;;4.70;42.90;;;;;;5218648;28;21082;-47
2022/03/01 08:02:21;;;;;;;16.10;8.10;;;3.60;45.40;;;;;;5225076;28;20422;-47
2022/03/01 08:04:51;;;;;;;11.90;7.10;;;2.90;47.50;;;;;;5222387;28;20182;-49
2022/03/01 08:07:24;;;;;;;16.70;7.90;;;2.40;49.10;;;;;;5221386;28;20241;-48
2022/03/01 08:09:54;;;;;;;14.40;7.70;;;2.10;50.40;;;;;;5220215;28;20321;-48
2022/03/01 08:12:25;;;;;;;12.23;7.10;;;1.90;52.40;;;;;;5224976;28;20437;-48
2022/03/01 08:14:56;;;;;;;13.10;6.33;;;1.90;53.50;;;;;;5221429;28;20186;-49
2022/03/01 08:17:26;;;;;;;15.90;7.87;;;1.80;53.90;;;;;;5225670;28;20732;-48
2022/03/01 08:19:57;;;;;;;16.00;7.07;;;1.80;54.70;;;;;;5223029;28;20642;-50
2022/03/01 08:22:27;;;;;;;13.87;6.80;;;1.90;54.90;;;;;;5223052;28;20172;-49
2022/03/01 08:24:58;;;;;;;15.20;7.40;;;2.00;55.30;;;;;;5226272;28;20290;-48
2022/03/01 08:27:28;;;;;;;16.70;8.60;;;2.00;55.60;;;;;;5223321;28;20615;-49
2022/03/01 08:29:59;;;;;;;15.40;7.50;;;2.20;55.80;;;;;;5223922;28;20195;-48
2022/03/01 08:32:29;;;;;;;10.23;5.70;;;2.30;55.50;;;;;;5224787;28;20182;-47
2022/03/01 08:35:00;;;;;;;11.00;6.80;;;2.30;55.10;;;;;;5225187;28;20644;-48
2022/03/01 08:37:31;;;;;;;14.80;7.73;;;2.30;54.80;;;;;;5223652;28;20186;-47
2022/03/01 08:40:03;;;;;;;15.67;7.23;;;2.50;54.80;;;;;;5208385;28;20210;-49
2022/03/01 08:42:34;;;;;;;13.03;6.57;;;2.50;55.00;;;;;;5222736;28;20187;-50
2022/03/01 08:45:06;;;;;;;13.47;6.83;;;2.80;54.50;;;;;;5225441;28;20433;-48
2022/03/01 08:47:37;;;;;;;16.93;7.27;;;2.80;54.40;;;;;;5225078;28;20183;-48
2022/03/01 08:50:09;;;;;;;14.10;6.57;;;2.90;54.60;;;;;;5222878;28;20464;-47
2022/03/01 08:52:39;;;;;;;15.03;6.70;;;2.70;54.40;;;;;;5225614;28;20471;-48
2022/03/01 08:55:10;;;;;;;13.43;6.97;;;2.80;54.50;;;;;;5223591;28;20467;-47
2022/03/01 08:57:41;;;;;;;11.10;6.13;;;2.80;54.20;;;;;;5225883;28;20320;-47
2022/03/01 09:00:13;;;;;;;10.83;6.60;;;2.80;53.70;;;;;;5221322;28;20238;-48
2022/03/01 09:02:44;;;;;;;14.70;6.80;;;2.90;53.70;;;;;;5222136;28;20179;-49
2022/03/01 09:05:14;;;;;;;13.67;7.77;;;3.00;53.50;;;;;;5224302;28;20434;-50
2022/03/01 09:07:45;;;;;;;15.03;7.23;;;3.00;53.70;;;;;;5215450;28;20265;-46
2022/03/01 09:10:21;;;;;;;22.03;7.97;;;3.10;53.60;;;;;;5224316;28;20231;-47
2022/03/01 09:12:53;;;;;;;9.97;6.73;;;3.10;53.20;;;;;;5221551;28;20448;-47
2022/03/01 09:15:30;;;;;;;11.63;6.80;;;3.20;53.10;;;;;;5219793;28;20446;-49
2022/03/01 09:18:03;;;;;;;15.07;7.30;;;3.20;52.90;;;;;;5223499;28;20503;-48
2022/03/01 09:20:34;;;;;;;14.20;6.90;;;3.40;52.80;;;;;;5208124;28;20519;-47
2022/03/01 09:23:05;;;;;;;13.40;7.30;;;3.50;53.10;;;;;;5223573;28;20472;-47
2022/03/01 09:25:36;;;;;;;13.93;7.33;;;3.50;52.40;;;;;;5223672;28;20465;-48
2022/03/01 09:28:06;;;;;;;11.07;7.30;;;3.60;52.60;;;;;;5224423;28;20622;-47
2022/03/01 09:30:37;;;;;;;12.17;6.40;;;3.70;51.90;;;;;;5226141;28;20278;-48
2022/03/01 09:33:07;;;;;;;21.70;7.90;;;3.70;51.60;;;;;;5222770;28;20210;-47
2022/03/01 09:35:39;;;;;;;25.77;8.73;;;3.80;51.20;;;;;;5223293;28;20185;-48
2022/03/01 09:38:09;;;;;;;10.60;6.23;;;4.00;50.00;;;;;;5218017;28;20183;-47
2022/03/01 09:40:40;;;;;;;16.40;8.23;;;3.90;50.40;;;;;;5223594;28;20466;-46
2022/03/01 09:43:10;;;;;;;12.50;7.67;;;3.90;50.50;;;;;;5224485;28;20179;-47
2022/03/01 09:45:42;;;;;;;15.60;7.87;;;4.00;49.90;;;;;;5222943;28;20220;-47
2022/03/01 09:48:13;;;;;;;9.33;7.00;;;4.10;49.60;;;;;;5222423;28;20199;-48
2022/03/01 09:50:46;;;;;;;9.20;6.03;;;4.10;49.20;;;;;;5225025;28;20527;-49
2022/03/01 09:53:16;;;;;;;16.53;9.70;;;4.20;49.10;;;;;;5222715;28;20209;-48
2022/03/01 09:55:47;;;;;;;23.27;10.40;;;4.30;48.90;;;;;;5218571;28;20434;-48
2022/03/01 09:58:17;;;;;;;18.23;7.73;;;4.30;49.30;;;;;;5225762;28;20605;-47
2022/03/01 10:00:48;;;;;;;18.70;9.60;;;4.30;48.70;;;;;;5221648;28;20691;-47
2022/03/01 10:03:20;;;;;;;8.10;6.27;;;4.30;49.10;;;;;;5222628;28;20284;-49
2022/03/01 10:05:51;;;;;;;19.57;11.27;;;4.50;49.00;;;;;;5221379;28;20209;-50
2022/03/01 10:08:22;;;;;;;19.93;7.40;;;4.60;48.20;;;;;;5220868;28;20464;-48
2022/03/01 10:10:53;;;;;;;18.00;6.80;;;4.70;48.40;;;;;;5221503;28;20468;-47
2022/03/01 10:13:33;;;;;;;8.10;5.83;;;4.60;48.10;;;;;;5220782;28;20192;-47
2022/03/01 10:16:14;;;;;;;10.20;5.97;;;4.50;48.70;;;;;;5220807;28;20427;-48
2022/03/01 10:18:57;;;;;;;11.00;6.77;;;4.50;49.00;;;;;;5216771;28;20495;-49
2022/03/01 10:21:28;;;;;;;10.53;6.57;;;4.40;49.10;;;;;;5218486;28;20464;-47
2022/03/01 10:23:58;;;;;;;14.33;6.50;;;4.50;48.80;;;;;;5217641;28;20422;-47
2022/03/01 10:26:31;;;;;;;13.13;6.80;;;4.50;48.80;;;;;;5219125;28;20179;-48
2022/03/01 10:29:01;;;;;;;10.60;6.83;;;4.50;48.90;;;;;;5221339;28;20187;-48
2022/03/01 10:31:34;;;;;;;16.83;6.60;;;4.40;48.50;;;;;;5221318;28;20519;-50
2022/03/01 10:34:10;;;;;;;9.30;5.90;;;4.60;48.90;;;;;;5220348;28;20277;-48
2022/03/01 10:36:49;;;;;;;10.27;5.80;;;4.70;48.00;;;;;;5223299;28;20426;-48
2022/03/01 10:39:24;;;;;;;11.53;6.00;;;4.80;47.80;;;;;;5222128;28;20437;-50
2022/03/01 10:41:56;;;;;;;10.97;6.17;;;4.80;47.40;;;;;;5222054;28;20828;-48
2022/03/01 10:44:29;;;;;;;16.03;6.57;;;4.90;47.20;;;;;;5221253;28;20433;-48
2022/03/01 10:47:02;;;;;;;8.87;7.30;;;5.10;47.60;;;;;;5220792;28;20435;-48
2022/03/01 10:49:35;;;;;;;12.67;7.77;;;5.30;47.00;;;;;;5222925;28;20438;-48
2022/03/01 10:52:08;;;;;;;17.53;7.30;;;5.50;47.20;;;;;;5221142;28;20447;-48
2022/03/01 10:54:42;;;;;;;19.47;6.30;;;5.40;46.50;;;;;;5223358;28;20510;-48
2022/03/01 10:57:23;;;;;;;13.43;6.40;;;5.40;46.10;;;;;;5223907;28;20444;-49
2022/03/01 10:59:53;;;;;;;7.67;6.70;;;5.30;45.80;;;;;;5214181;28;20466;-47
2022/03/01 11:02:24;;;;;;;8.73;5.77;;;5.30;46.20;;;;;;5214187;28;20803;-49
2022/03/01 11:04:55;;;;;;;11.33;6.07;;;5.40;45.60;;;;;;5217524;28;20190;-49
2022/03/01 11:07:29;;;;;;;10.93;6.63;;;5.60;44.90;;;;;;5199849;28;20194;-47
2022/03/01 11:10:01;;;;;;;11.10;6.17;;;5.80;44.60;;;;;;5218599;28;20218;-49
2022/03/01 11:12:33;;;;;;;10.43;6.67;;;5.70;44.50;;;;;;5215577;28;20462;-48
2022/03/01 11:15:22;;;;;;;15.33;6.37;;;5.50;44.50;;;;;;5221088;28;20448;-49
2022/03/01 11:18:05;;;;;;;10.87;5.67;;;5.60;44.40;;;;;;5220065;28;20442;-48
2022/03/01 11:20:43;;;;;;;14.97;6.63;;;5.60;44.10;;;;;;5220459;28;20487;-48
2022/03/01 11:23:19;;;;;;;10.50;6.13;;;5.80;44.10;;;;;;5223624;28;20422;-48
2022/03/01 11:25:49;;;;;;;13.77;6.43;;;5.80;42.80;;;;;;5219926;28;20448;-49
2022/03/01 11:28:39;;;;;;;10.43;6.47;;;5.80;42.90;;;;;;5219367;28;20924;-49
2022/03/01 11:31:26;;;;;;;10.90;5.20;;;5.80;42.80;;;;;;5222023;28;20574;-48
2022/03/01 11:34:05;;;;;;;13.40;6.23;;;5.90;43.10;;;;;;5235052;28;20436;-47
2022/03/01 11:36:36;;;;;;;8.57;5.47;;;6.00;42.50;;;;;;5222328;28;20431;-53
2022/03/01 11:39:08;;;;;;;16.53;6.10;;;6.20;41.70;;;;;;5224302;28;20439;-49
2022/03/01 11:41:44;;;;;;;8.77;5.77;;;6.40;42.00;;;;;;5226596;28;20242;-48
2022/03/01 11:44:23;;;;;;;12.50;6.30;;;6.50;41.50;;;;;;5227587;28;20430;-49
2022/03/01 11:46:54;;;;;;;9.40;6.00;;;6.60;40.60;;;;;;5223680;28;20470;-49
2022/03/01 11:49:31;;;;;;;12.10;5.83;;;6.50;40.60;;;;;;5225741;28;20968;-48
2022/03/01 11:52:03;;;;;;;7.67;5.20;;;6.60;40.60;;;;;;5223613;28;20440;-49
2022/03/01 11:54:36;;;;;;;10.93;6.40;;;6.70;40.20;;;;;;5227237;28;20519;-47
2022/03/01 11:57:08;;;;;;;9.53;4.60;;;6.90;39.40;;;;;;5225683;28;20447;-48
2022/03/01 11:59:40;;;;;;;11.40;5.30;;;6.90;38.30;;;;;;5220787;28;20663;-48
2022/03/01 12:02:11;;;;;;;7.80;5.03;;;7.00;38.50;;;;;;5225602;28;20429;-48
2022/03/01 12:04:47;;;;;;;8.67;5.00;;;7.00;38.50;;;;;;5225418;28;20448;-50
2022/03/01 12:07:20;;;;;;;6.70;5.50;;;6.80;38.70;;;;;;5222381;28;20508;-49
2022/03/01 12:09:54;;;;;;;7.40;4.97;;;6.90;38.50;;;;;;5226188;28;21031;-47
2022/03/01 12:12:44;;;;;;;9.00;4.80;;;6.90;37.60;;;;;;5224381;28;20444;-49
2022/03/01 12:15:27;;;;;;;8.20;4.83;;;7.00;37.50;;;;;;5226149;28;20486;-50
2022/03/01 12:18:08;;;;;;;8.83;4.30;;;7.10;37.40;;;;;;5223020;28;20445;-49
2022/03/01 12:20:47;;;;;;;5.80;4.67;;;7.20;37.00;;;;;;5225642;28;20551;-48
2022/03/01 12:23:29;;;;;;;6.90;4.90;;;7.10;36.60;;;;;;5222616;28;20444;-49
2022/03/01 12:26:05;;;;;;;5.60;4.60;;;7.00;36.20;;;;;;5220953;28;20948;-48
2022/03/01 12:28:41;;;;;;;11.53;4.57;;;7.00;36.40;;;;;;5223958;28;21095;-49
2022/03/01 12:31:15;;;;;;;7.53;4.23;;;7.10;36.60;;;;;;5217680;28;20777;-49
2022/03/01 12:33:59;;;;;;;10.83;4.97;;;7.20;37.10;;;;;;5223947;28;20425;-49
2022/03/01 12:36:41;;;;;;;7.63;5.07;;;7.20;36.50;;;;;;5211703;28;20480;-49
2022/03/01 12:39:15;;;;;;;5.10;4.30;;;7.30;36.60;;;;;;5217712;28;20549;-50
2022/03/01 12:41:46;;;;;;;5.17;4.53;;;7.40;36.10;;;;;;5217391;28;20482;-50
2022/03/01 12:44:19;;;;;;;6.57;4.40;;;7.60;36.00;;;;;;5223398;28;20530;-48
2022/03/01 12:46:51;;;;;;;4.90;3.90;;;7.70;35.50;;;;;;5223359;28;20530;-51
2022/03/01 12:49:22;;;;;;;10.47;5.50;;;7.60;36.00;;;;;;5224802;28;20768;-51
2022/03/01 12:51:55;;;;;;;8.17;4.30;;;7.70;36.30;;;;;;5218521;28;20433;-48
2022/03/01 12:54:28;;;;;;;14.00;5.30;;;7.70;35.50;;;;;;5225234;28;20210;-49
2022/03/01 12:57:06;;;;;;;9.33;6.13;;;7.70;35.20;;;;;;5203282;28;20961;-51
2022/03/01 12:59:36;;;;;;;9.63;4.80;;;7.70;35.80;;;;;;5227758;28;20500;-49
2022/03/01 13:02:07;;;;;;;7.13;4.57;;;7.70;35.10;;;;;;5217087;28;20523;-50
2022/03/01 13:04:39;;;;;;;7.97;5.73;;;7.60;34.70;;;;;;5226047;28;20175;-49
2022/03/01 13:07:10;;;;;;;5.03;4.27;;;7.50;35.20;;;;;;5225582;28;20515;-49